sensor_id;sensor_type;location;lat;lon;timestamp;pressure;altitude;pressure_sealevel;temperature;humidity
58757;BME280;44527;47.460;19.016;2023-11-19T00:00:55;100884.91;;;2.52;96.36
58757;BME280;44527;47.460;19.016;2023-11-19T00:03:58;100900.69;;;2.43;96.47
58757;BME280;44527;47.460;19.016;2023-11-19T00:07:00;100898.00;;;2.46;96.71
58757;BME280;44527;47.460;19.016;2023-11-19T00:10:11;100882.34;;;2.51;97.13
58757;BME280;44527;47.460;19.016;2023-11-19T00:13:13;100878.38;;;2.72;96.10
58757;BME280;44527;47.460;19.016;2023-11-19T00:16:16;100877.13;;;2.52;96.49
58757;BME280;44527;47.460;19.016;2023-11-19T00:19:19;100878.97;;;2.47;97.60
58757;BME280;44527;47.460;19.016;2023-11-19T00:22:22;100879.19;;;2.40;98.11
58757;BME280;44527;47.460;19.016;2023-11-19T00:25:24;100879.41;;;2.30;98.97
58757;BME280;44527;47.460;19.016;2023-11-19T00:28:28;100879.28;;;2.35;97.83
58757;BME280;44527;47.460;19.016;2023-11-19T00:31:31;100888.78;;;2.35;98.77
58757;BME280;44527;47.460;19.016;2023-11-19T00:34:34;100903.28;;;2.42;98.07
58757;BME280;44527;47.460;19.016;2023-11-19T00:37:36;100905.00;;;2.43;98.85
58757;BME280;44527;47.460;19.016;2023-11-19T00:40:39;100904.34;;;2.35;98.15
58757;BME280;44527;47.460;19.016;2023-11-19T00:43:43;100908.81;;;2.26;98.28
58757;BME280;44527;47.460;19.016;2023-11-19T00:46:45;100898.22;;;2.37;97.81
58757;BME280;44527;47.460;19.016;2023-11-19T00:49:50;100890.25;;;2.46;97.51
58757;BME280;44527;47.460;19.016;2023-11-19T00:52:52;100886.66;;;2.52;96.67
58757;BME280;44527;47.460;19.016;2023-11-19T00:55:55;100889.91;;;2.24;98.23
58757;BME280;44527;47.460;19.016;2023-11-19T00:58:57;100890.47;;;2.36;98.04
58757;BME280;44527;47.460;19.016;2023-11-19T01:02:00;100878.59;;;2.63;95.78
58757;BME280;44527;47.460;19.016;2023-11-19T01:05:08;100877.47;;;2.39;97.46
58757;BME280;44527;47.460;19.016;2023-11-19T01:08:10;100878.25;;;2.42;98.02
58757;BME280;44527;47.460;19.016;2023-11-19T01:11:20;100880.72;;;2.48;97.31
58757;BME280;44527;47.460;19.016;2023-11-19T01:14:24;100884.00;;;2.53;97.82
58757;BME280;44527;47.460;19.016;2023-11-19T01:17:27;100888.19;;;2.59;97.20
58757;BME280;44527;47.460;19.016;2023-11-19T01:20:31;100890.84;;;2.58;96.78
58757;BME280;44527;47.460;19.016;2023-11-19T01:23:36;100891.00;;;2.51;97.18
58757;BME280;44527;47.460;19.016;2023-11-19T01:26:39;100876.47;;;2.44;98.27
58757;BME280;44527;47.460;19.016;2023-11-19T01:29:47;100880.25;;;2.31;99.19
58757;BME280;44527;47.460;19.016;2023-11-19T01:32:50;100883.00;;;2.23;100.00
58757;BME280;44527;47.460;19.016;2023-11-19T01:35:52;100873.50;;;2.24;100.00
58757;BME280;44527;47.460;19.016;2023-11-19T01:38:55;100878.00;;;2.16;100.00
58757;BME280;44527;47.460;19.016;2023-11-19T01:41:58;100876.25;;;2.16;100.00
58757;BME280;44527;47.460;19.016;2023-11-19T01:45:01;100871.78;;;2.23;100.00
58757;BME280;44527;47.460;19.016;2023-11-19T01:48:04;100874.44;;;2.20;100.00
58757;BME280;44527;47.460;19.016;2023-11-19T01:51:08;100867.37;;;2.28;100.00
58757;BME280;44527;47.460;19.016;2023-11-19T01:54:12;100858.00;;;2.22;100.00
58757;BME280;44527;47.460;19.016;2023-11-19T01:57:14;100847.84;;;2.13;100.00
58757;BME280;44527;47.460;19.016;2023-11-19T02:00:18;100841.19;;;2.03;100.00
58757;BME280;44527;47.460;19.016;2023-11-19T02:03:23;100835.03;;;2.07;100.00
58757;BME280;44527;47.460;19.016;2023-11-19T02:06:28;100842.06;;;2.02;100.00
58757;BME280;44527;47.460;19.016;2023-11-19T02:09:32;100828.72;;;2.19;100.00
58757;BME280;44527;47.460;19.016;2023-11-19T02:12:34;100827.59;;;2.30;100.00
58757;BME280;44527;47.460;19.016;2023-11-19T02:15:38;100824.31;;;2.24;100.00
58757;BME280;44527;47.460;19.016;2023-11-19T02:18:40;100832.25;;;2.16;100.00
58757;BME280;44527;47.460;19.016;2023-11-19T02:21:43;100826.50;;;2.03;100.00
58757;BME280;44527;47.460;19.016;2023-11-19T02:24:49;100825.66;;;2.03;100.00
58757;BME280;44527;47.460;19.016;2023-11-19T02:27:55;100826.50;;;2.03;100.00
58757;BME280;44527;47.460;19.016;2023-11-19T02:30:59;100816.28;;;1.97;100.00
58757;BME280;44527;47.460;19.016;2023-11-19T02:34:02;100819.03;;;1.90;100.00
58757;BME280;44527;47.460;19.016;2023-11-19T02:37:05;100815.88;;;1.77;100.00
58757;BME280;44527;47.460;19.016;2023-11-19T02:40:07;100825.91;;;1.52;100.00
58757;BME280;44527;47.460;19.016;2023-11-19T02:43:12;100825.28;;;1.41;100.00
58757;BME280;44527;47.460;19.016;2023-11-19T02:46:15;100815.59;;;1.50;100.00
58757;BME280;44527;47.460;19.016;2023-11-19T02:49:20;100807.72;;;1.55;100.00
58757;BME280;44527;47.460;19.016;2023-11-19T02:52:23;100810.37;;;1.52;100.00
58757;BME280;44527;47.460;19.016;2023-11-19T02:55:27;100795.88;;;1.45;100.00
58757;BME280;44527;47.460;19.016;2023-11-19T02:58:32;100792.06;;;1.63;100.00
58757;BME280;44527;47.460;19.016;2023-11-19T03:01:37;100797.25;;;1.61;100.00
58757;BME280;44527;47.460;19.016;2023-11-19T03:04:39;100789.00;;;1.84;100.00
58757;BME280;44527;47.460;19.016;2023-11-19T03:07:42;100786.56;;;1.76;100.00
58757;BME280;44527;47.460;19.016;2023-11-19T03:10:48;100783.47;;;1.60;100.00
58757;BME280;44527;47.460;19.016;2023-11-19T03:13:51;100779.56;;;1.80;100.00
58757;BME280;44527;47.460;19.016;2023-11-19T03:16:54;100786.63;;;1.75;100.00
58757;BME280;44527;47.460;19.016;2023-11-19T03:19:57;100773.63;;;1.76;100.00
58757;BME280;44527;47.460;19.016;2023-11-19T03:22:59;100772.06;;;1.69;100.00
58757;BME280;44527;47.460;19.016;2023-11-19T03:26:05;100776.34;;;1.70;100.00
58757;BME280;44527;47.460;19.016;2023-11-19T03:29:08;100768.84;;;1.58;100.00
58757;BME280;44527;47.460;19.016;2023-11-19T03:32:11;100767.31;;;1.51;100.00
58757;BME280;44527;47.460;19.016;2023-11-19T03:35:14;100761.31;;;1.49;100.00
58757;BME280;44527;47.460;19.016;2023-11-19T03:38:17;100776.59;;;1.59;100.00
58757;BME280;44527;47.460;19.016;2023-11-19T03:41:19;100773.25;;;1.54;100.00
58757;BME280;44527;47.460;19.016;2023-11-19T03:44:22;100740.47;;;1.55;100.00
58757;BME280;44527;47.460;19.016;2023-11-19T03:47:24;100734.69;;;1.44;100.00
58757;BME280;44527;47.460;19.016;2023-11-19T03:50:27;100732.34;;;1.33;100.00
58757;BME280;44527;47.460;19.016;2023-11-19T03:53:31;100729.75;;;1.33;100.00
58757;BME280;44527;47.460;19.016;2023-11-19T03:56:34;100723.47;;;1.43;100.00
58757;BME280;44527;47.460;19.016;2023-11-19T03:59:37;100717.44;;;1.44;100.00
58757;BME280;44527;47.460;19.016;2023-11-19T04:02:40;100720.44;;;1.26;100.00
58757;BME280;44527;47.460;19.016;2023-11-19T04:05:43;100712.50;;;0.93;100.00
58757;BME280;44527;47.460;19.016;2023-11-19T04:08:46;100715.66;;;1.07;100.00
58757;BME280;44527;47.460;19.016;2023-11-19T04:11:49;100709.19;;;0.86;100.00
58757;BME280;44527;47.460;19.016;2023-11-19T04:14:51;100698.59;;;0.99;100.00
58757;BME280;44527;47.460;19.016;2023-11-19T04:17:57;100697.97;;;1.28;100.00
58757;BME280;44527;47.460;19.016;2023-11-19T04:20:59;100704.38;;;1.11;100.00
58757;BME280;44527;47.460;19.016;2023-11-19T04:24:02;100701.78;;;1.10;100.00
58757;BME280;44527;47.460;19.016;2023-11-19T04:27:05;100694.91;;;1.10;100.00
58757;BME280;44527;47.460;19.016;2023-11-19T04:30:09;100686.53;;;0.98;100.00
58757;BME280;44527;47.460;19.016;2023-11-19T04:33:13;100689.75;;;1.10;100.00
58757;BME280;44527;47.460;19.016;2023-11-19T04:36:18;100682.13;;;1.04;100.00
58757;BME280;44527;47.460;19.016;2023-11-19T04:39:21;100673.75;;;0.91;100.00
58757;BME280;44527;47.460;19.016;2023-11-19T04:42:25;100679.22;;;0.78;100.00
58757;BME280;44527;47.460;19.016;2023-11-19T04:45:27;100688.41;;;0.91;100.00
58757;BME280;44527;47.460;19.016;2023-11-19T04:48:30;100710.69;;;0.98;100.00
58757;BME280;44527;47.460;19.016;2023-11-19T04:51:44;100712.25;;;1.05;100.00
58757;BME280;44527;47.460;19.016;2023-11-19T04:54:48;100710.88;;;0.89;100.00
58757;BME280;44527;47.460;19.016;2023-11-19T04:57:50;100718.81;;;0.78;100.00
58757;BME280;44527;47.460;19.016;2023-11-19T05:00:53;100719.28;;;0.97;100.00
58757;BME280;44527;47.460;19.016;2023-11-19T05:03:56;100722.31;;;1.18;100.00
58757;BME280;44527;47.460;19.016;2023-11-19T05:07:02;100716.56;;;1.05;100.00
58757;BME280;44527;47.460;19.016;2023-11-19T05:10:05;100696.41;;;1.21;100.00
58757;BME280;44527;47.460;19.016;2023-11-19T05:13:08;100701.13;;;1.00;100.00
58757;BME280;44527;47.460;19.016;2023-11-19T05:16:11;100708.63;;;1.14;100.00
58757;BME280;44527;47.460;19.016;2023-11-19T05:19:16;100708.31;;;1.28;100.00
58757;BME280;44527;47.460;19.016;2023-11-19T05:22:19;100720.12;;;1.40;100.00
58757;BME280;44527;47.460;19.016;2023-11-19T05:25:24;100720.97;;;1.40;100.00
58757;BME280;44527;47.460;19.016;2023-11-19T05:28:27;100711.50;;;1.39;100.00
58757;BME280;44527;47.460;19.016;2023-11-19T05:31:30;100700.88;;;1.51;100.00
58757;BME280;44527;47.460;19.016;2023-11-19T05:34:37;100705.78;;;1.64;100.00
58757;BME280;44527;47.460;19.016;2023-11-19T05:37:53;100693.28;;;1.44;100.00
58757;BME280;44527;47.460;19.016;2023-11-19T05:40:56;100691.44;;;1.50;100.00
58757;BME280;44527;47.460;19.016;2023-11-19T05:43:59;100699.00;;;1.58;100.00
58757;BME280;44527;47.460;19.016;2023-11-19T05:47:02;100703.28;;;1.59;100.00
58757;BME280;44527;47.460;19.016;2023-11-19T05:50:05;100691.94;;;1.65;100.00
58757;BME280;44527;47.460;19.016;2023-11-19T05:53:08;100684.09;;;1.32;100.00
58757;BME280;44527;47.460;19.016;2023-11-19T05:56:16;100705.56;;;1.35;100.00
58757;BME280;44527;47.460;19.016;2023-11-19T05:59:23;100707.31;;;1.72;100.00
58757;BME280;44527;47.460;19.016;2023-11-19T06:02:27;100704.16;;;1.59;100.00
58757;BME280;44527;47.460;19.016;2023-11-19T06:05:29;100694.03;;;1.49;100.00
58757;BME280;44527;47.460;19.016;2023-11-19T06:08:32;100696.22;;;1.28;100.00
58757;BME280;44527;47.460;19.016;2023-11-19T06:11:35;100710.88;;;1.28;100.00
58757;BME280;44527;47.460;19.016;2023-11-19T06:14:39;100691.66;;;1.40;100.00
58757;BME280;44527;47.460;19.016;2023-11-19T06:17:42;100693.06;;;1.53;100.00
58757;BME280;44527;47.460;19.016;2023-11-19T06:20:45;100681.56;;;1.66;100.00
58757;BME280;44527;47.460;19.016;2023-11-19T06:23:48;100677.94;;;1.73;100.00
58757;BME280;44527;47.460;19.016;2023-11-19T06:26:51;100683.19;;;1.70;100.00
58757;BME280;44527;47.460;19.016;2023-11-19T06:29:54;100682.41;;;1.67;100.00
58757;BME280;44527;47.460;19.016;2023-11-19T06:32:56;100677.56;;;1.89;100.00
58757;BME280;44527;47.460;19.016;2023-11-19T06:36:00;100672.28;;;1.93;100.00
58757;BME280;44527;47.460;19.016;2023-11-19T06:39:02;100657.91;;;1.81;100.00
58757;BME280;44527;47.460;19.016;2023-11-19T06:42:06;100665.53;;;1.86;100.00
58757;BME280;44527;47.460;19.016;2023-11-19T06:45:09;100657.53;;;1.97;100.00
58757;BME280;44527;47.460;19.016;2023-11-19T06:48:12;100656.19;;;2.15;100.00
58757;BME280;44527;47.460;19.016;2023-11-19T06:51:15;100651.72;;;2.20;100.00
58757;BME280;44527;47.460;19.016;2023-11-19T06:54:18;100653.22;;;2.28;100.00
58757;BME280;44527;47.460;19.016;2023-11-19T06:57:20;100653.66;;;2.44;100.00
58757;BME280;44527;47.460;19.016;2023-11-19T07:00:23;100658.72;;;2.80;99.69
58757;BME280;44527;47.460;19.016;2023-11-19T07:03:26;100649.72;;;2.92;98.29
58757;BME280;44527;47.460;19.016;2023-11-19T07:06:29;100650.28;;;3.02;97.51
58757;BME280;44527;47.460;19.016;2023-11-19T07:09:34;100657.72;;;3.14;97.17
58757;BME280;44527;47.460;19.016;2023-11-19T07:12:37;100652.53;;;3.14;97.16
58757;BME280;44527;47.460;19.016;2023-11-19T07:15:39;100646.34;;;3.18;97.62
58757;BME280;44527;47.460;19.016;2023-11-19T07:18:42;100658.09;;;3.30;96.62
58757;BME280;44527;47.460;19.016;2023-11-19T07:21:46;100647.41;;;3.39;96.22
58757;BME280;44527;47.460;19.016;2023-11-19T07:24:49;100650.94;;;3.36;95.69
58757;BME280;44527;47.460;19.016;2023-11-19T07:27:52;100655.25;;;3.37;96.18
58757;BME280;44527;47.460;19.016;2023-11-19T07:30:55;100653.94;;;3.52;95.49
58757;BME280;44527;47.460;19.016;2023-11-19T07:33:59;100662.19;;;3.37;95.71
58757;BME280;44527;47.460;19.016;2023-11-19T07:37:02;100651.13;;;3.58;95.62
58757;BME280;44527;47.460;19.016;2023-11-19T07:40:05;100658.25;;;3.52;96.48
58757;BME280;44527;47.460;19.016;2023-11-19T07:43:08;100653.87;;;3.54;96.47
58757;BME280;44527;47.460;19.016;2023-11-19T07:46:11;100647.25;;;3.72;95.79
58757;BME280;44527;47.460;19.016;2023-11-19T07:49:16;100661.06;;;3.99;94.36
58757;BME280;44527;47.460;19.016;2023-11-19T07:52:18;100673.12;;;3.73;96.13
58757;BME280;44527;47.460;19.016;2023-11-19T07:55:24;100667.91;;;3.75;96.88
58757;BME280;44527;47.460;19.016;2023-11-19T07:58:26;100663.41;;;3.80;97.00
58757;BME280;44527;47.460;19.016;2023-11-19T08:01:29;100653.19;;;3.75;96.93
58757;BME280;44527;47.460;19.016;2023-11-19T08:04:32;100649.66;;;3.76;98.25
58757;BME280;44527;47.460;19.016;2023-11-19T08:07:36;100650.69;;;3.97;98.01
58757;BME280;44527;47.460;19.016;2023-11-19T08:10:39;100638.94;;;4.12;97.51
58757;BME280;44527;47.460;19.016;2023-11-19T08:13:42;100631.31;;;4.07;97.69
58757;BME280;44527;47.460;19.016;2023-11-19T08:16:45;100624.50;;;3.78;100.00
58757;BME280;44527;47.460;19.016;2023-11-19T08:19:48;100616.06;;;3.98;100.00
58757;BME280;44527;47.460;19.016;2023-11-19T08:22:51;100605.38;;;4.06;100.00
58757;BME280;44527;47.460;19.016;2023-11-19T08:25:54;100598.00;;;4.19;98.73
58757;BME280;44527;47.460;19.016;2023-11-19T08:28:57;100581.25;;;4.27;97.75
58757;BME280;44527;47.460;19.016;2023-11-19T08:32:01;100555.03;;;4.10;100.00
58757;BME280;44527;47.460;19.016;2023-11-19T08:35:06;100570.28;;;4.19;100.00
58757;BME280;44527;47.460;19.016;2023-11-19T08:38:10;100607.94;;;4.32;98.63
58757;BME280;44527;47.460;19.016;2023-11-19T08:41:13;100617.72;;;4.24;99.12
58757;BME280;44527;47.460;19.016;2023-11-19T08:44:15;100587.88;;;4.36;98.95
58757;BME280;44527;47.460;19.016;2023-11-19T08:47:19;100581.75;;;4.13;98.94
58757;BME280;44527;47.460;19.016;2023-11-19T08:50:22;100589.78;;;4.07;100.00
58757;BME280;44527;47.460;19.016;2023-11-19T08:53:25;100563.75;;;4.32;98.67
58757;BME280;44527;47.460;19.016;2023-11-19T08:56:29;100575.00;;;4.56;97.94
58757;BME280;44527;47.460;19.016;2023-11-19T08:59:37;100595.44;;;4.66;96.18
58757;BME280;44527;47.460;19.016;2023-11-19T09:02:41;100566.78;;;4.67;95.56
58757;BME280;44527;47.460;19.016;2023-11-19T09:05:46;100587.22;;;4.76;94.11
58757;BME280;44527;47.460;19.016;2023-11-19T09:08:49;100590.16;;;4.67;95.22
58757;BME280;44527;47.460;19.016;2023-11-19T09:11:52;100590.28;;;4.88;94.69
58757;BME280;44527;47.460;19.016;2023-11-19T09:14:55;100591.47;;;4.79;93.33
58757;BME280;44527;47.460;19.016;2023-11-19T09:17:58;100591.75;;;4.71;94.25
58757;BME280;44527;47.460;19.016;2023-11-19T09:21:01;100596.66;;;4.79;94.61
58757;BME280;44527;47.460;19.016;2023-11-19T09:24:05;100609.72;;;4.77;94.69
58757;BME280;44527;47.460;19.016;2023-11-19T09:27:10;100590.56;;;4.80;93.62
58757;BME280;44527;47.460;19.016;2023-11-19T09:30:13;100598.53;;;4.75;93.97
58757;BME280;44527;47.460;19.016;2023-11-19T09:33:15;100598.44;;;4.78;93.23
58757;BME280;44527;47.460;19.016;2023-11-19T09:36:18;100602.59;;;4.82;92.40
58757;BME280;44527;47.460;19.016;2023-11-19T09:39:21;100600.69;;;4.88;92.35
58757;BME280;44527;47.460;19.016;2023-11-19T09:42:24;100576.72;;;5.01;90.57
58757;BME280;44527;47.460;19.016;2023-11-19T09:45:27;100575.19;;;4.96;90.41
58757;BME280;44527;47.460;19.016;2023-11-19T09:48:32;100574.72;;;4.86;91.53
58757;BME280;44527;47.460;19.016;2023-11-19T09:51:38;100563.66;;;4.81;92.56
58757;BME280;44527;47.460;19.016;2023-11-19T09:54:41;100556.13;;;4.73;92.99
58757;BME280;44527;47.460;19.016;2023-11-19T09:57:44;100559.59;;;4.96;91.22
58757;BME280;44527;47.460;19.016;2023-11-19T10:00:47;100558.03;;;4.92;91.37
58757;BME280;44527;47.460;19.016;2023-11-19T10:04:12;100555.19;;;4.76;92.38
58757;BME280;44527;47.460;19.016;2023-11-19T10:07:17;100534.06;;;4.83;92.79
58757;BME280;44527;47.460;19.016;2023-11-19T10:10:20;100547.84;;;5.07;91.10
58757;BME280;44527;47.460;19.016;2023-11-19T10:13:26;100520.69;;;5.15;90.79
58757;BME280;44527;47.460;19.016;2023-11-19T10:16:34;100514.53;;;5.38;89.44
58757;BME280;44527;47.460;19.016;2023-11-19T10:19:40;100511.16;;;5.36;89.07
58757;BME280;44527;47.460;19.016;2023-11-19T10:22:44;100512.19;;;5.32;90.17
58757;BME280;44527;47.460;19.016;2023-11-19T10:25:48;100504.13;;;5.38;89.62
58757;BME280;44527;47.460;19.016;2023-11-19T10:28:51;100495.22;;;5.43;87.79
58757;BME280;44527;47.460;19.016;2023-11-19T10:31:57;100492.94;;;5.56;88.96
58757;BME280;44527;47.460;19.016;2023-11-19T10:35:20;100491.91;;;5.40;88.28
58757;BME280;44527;47.460;19.016;2023-11-19T10:38:24;100499.75;;;5.38;89.24
58757;BME280;44527;47.460;19.016;2023-11-19T10:41:31;100502.94;;;5.65;87.11
58757;BME280;44527;47.460;19.016;2023-11-19T10:44:34;100497.41;;;5.73;88.16
58757;BME280;44527;47.460;19.016;2023-11-19T10:47:42;100500.09;;;5.71;90.94
58757;BME280;44527;47.460;19.016;2023-11-19T10:50:47;100499.19;;;5.72;91.54
58757;BME280;44527;47.460;19.016;2023-11-19T10:53:55;100498.69;;;5.83;89.89
58757;BME280;44527;47.460;19.016;2023-11-19T10:57:02;100491.78;;;5.63;90.38
58757;BME280;44527;47.460;19.016;2023-11-19T11:00:07;100489.16;;;5.63;90.65
58757;BME280;44527;47.460;19.016;2023-11-19T11:03:18;100482.28;;;5.42;91.34
58757;BME280;44527;47.460;19.016;2023-11-19T11:06:23;100472.19;;;5.55;92.04
58757;BME280;44527;47.460;19.016;2023-11-19T11:09:27;100468.06;;;5.49;93.07
58757;BME280;44527;47.460;19.016;2023-11-19T11:12:37;100459.88;;;5.38;94.67
58757;BME280;44527;47.460;19.016;2023-11-19T11:15:45;100448.56;;;5.39;93.30
58757;BME280;44527;47.460;19.016;2023-11-19T11:18:49;100446.41;;;5.48;95.47
58757;BME280;44527;47.460;19.016;2023-11-19T11:21:55;100439.19;;;5.55;94.90
58757;BME280;44527;47.460;19.016;2023-11-19T11:25:11;100433.84;;;5.38;96.41
58757;BME280;44527;47.460;19.016;2023-11-19T11:35:52;100434.38;;;5.46;98.70
58757;BME280;44527;47.460;19.016;2023-11-19T11:38:58;100431.91;;;5.43;96.42
58757;BME280;44527;47.460;19.016;2023-11-19T11:45:38;100431.97;;;5.21;99.22
58757;BME280;44527;47.460;19.016;2023-11-19T11:48:48;100427.00;;;5.35;99.15
58757;BME280;44527;47.460;19.016;2023-11-19T11:51:58;100411.66;;;5.29;99.29
58757;BME280;44527;47.460;19.016;2023-11-19T11:55:05;100398.78;;;5.26;99.76
58757;BME280;44527;47.460;19.016;2023-11-19T11:58:11;100405.72;;;5.46;99.80
58757;BME280;44527;47.460;19.016;2023-11-19T12:01:15;100398.16;;;5.60;99.17
58757;BME280;44527;47.460;19.016;2023-11-19T12:04:28;100394.88;;;5.75;99.71
58757;BME280;44527;47.460;19.016;2023-11-19T12:07:32;100395.03;;;5.72;96.94
58757;BME280;44527;47.460;19.016;2023-11-19T12:10:56;100382.97;;;5.70;98.79
58757;BME280;44527;47.460;19.016;2023-11-19T12:14:00;100379.81;;;5.82;98.87
58757;BME280;44527;47.460;19.016;2023-11-19T12:20:36;100347.50;;;5.86;99.06
58757;BME280;44527;47.460;19.016;2023-11-19T12:23:46;100362.72;;;5.95;98.47
58757;BME280;44527;47.460;19.016;2023-11-19T12:26:53;100356.59;;;6.15;97.51
58757;BME280;44527;47.460;19.016;2023-11-19T12:30:03;100345.00;;;6.40;96.31
58757;BME280;44527;47.460;19.016;2023-11-19T12:33:09;100341.66;;;6.36;96.14
58757;BME280;44527;47.460;19.016;2023-11-19T12:36:12;100325.63;;;6.09;96.86
58757;BME280;44527;47.460;19.016;2023-11-19T12:39:15;100319.81;;;6.21;97.42
58757;BME280;44527;47.460;19.016;2023-11-19T12:42:18;100310.31;;;6.38;95.69
58757;BME280;44527;47.460;19.016;2023-11-19T12:45:21;100305.84;;;6.22;95.28
58757;BME280;44527;47.460;19.016;2023-11-19T12:48:26;100308.31;;;6.26;96.85
58757;BME280;44527;47.460;19.016;2023-11-19T12:51:32;100312.34;;;6.14;95.03
58757;BME280;44527;47.460;19.016;2023-11-19T12:54:37;100298.72;;;6.26;94.09
58757;BME280;44527;47.460;19.016;2023-11-19T12:57:40;100294.75;;;6.19;94.35
58757;BME280;44527;47.460;19.016;2023-11-19T13:00:43;100287.75;;;6.19;92.92
58757;BME280;44527;47.460;19.016;2023-11-19T13:03:47;100278.13;;;6.21;93.43
58757;BME280;44527;47.460;19.016;2023-11-19T13:06:54;100279.06;;;6.02;93.60
58757;BME280;44527;47.460;19.016;2023-11-19T13:10:02;100275.31;;;6.07;94.55
58757;BME280;44527;47.460;19.016;2023-11-19T13:13:07;100284.66;;;6.11;93.57
58757;BME280;44527;47.460;19.016;2023-11-19T13:16:10;100283.78;;;6.12;93.25
58757;BME280;44527;47.460;19.016;2023-11-19T13:19:15;100289.47;;;6.02;93.25
58757;BME280;44527;47.460;19.016;2023-11-19T13:22:21;100283.34;;;6.03;92.51
58757;BME280;44527;47.460;19.016;2023-11-19T13:25:24;100281.75;;;6.17;95.48
58757;BME280;44527;47.460;19.016;2023-11-19T13:28:27;100284.06;;;6.24;91.08
58757;BME280;44527;47.460;19.016;2023-11-19T13:31:30;100272.19;;;6.18;93.37
58757;BME280;44527;47.460;19.016;2023-11-19T13:34:33;100264.50;;;6.15;93.16
58757;BME280;44527;47.460;19.016;2023-11-19T13:37:36;100273.78;;;6.20;92.95
58757;BME280;44527;47.460;19.016;2023-11-19T13:40:39;100277.37;;;6.18;93.33
58757;BME280;44527;47.460;19.016;2023-11-19T13:43:43;100266.75;;;6.22;93.24
58757;BME280;44527;47.460;19.016;2023-11-19T13:46:46;100276.03;;;6.28;90.90
58757;BME280;44527;47.460;19.016;2023-11-19T13:49:50;100276.03;;;6.28;92.27
58757;BME280;44527;47.460;19.016;2023-11-19T13:52:52;100275.72;;;6.52;89.95
58757;BME280;44527;47.460;19.016;2023-11-19T13:55:55;100270.59;;;6.33;91.11
58757;BME280;44527;47.460;19.016;2023-11-19T13:58:58;100262.16;;;6.28;92.30
58757;BME280;44527;47.460;19.016;2023-11-19T14:02:01;100262.62;;;6.36;91.12
58757;BME280;44527;47.460;19.016;2023-11-19T14:05:04;100258.25;;;6.36;91.73
58757;BME280;44527;47.460;19.016;2023-11-19T14:08:08;100244.75;;;6.28;90.54
58757;BME280;44527;47.460;19.016;2023-11-19T14:11:27;100251.97;;;6.23;93.53
58757;BME280;44527;47.460;19.016;2023-11-19T14:14:29;100257.16;;;6.23;94.81
58757;BME280;44527;47.460;19.016;2023-11-19T14:17:33;100262.22;;;6.26;95.58
58757;BME280;44527;47.460;19.016;2023-11-19T14:20:36;100256.19;;;6.26;97.91
58757;BME280;44527;47.460;19.016;2023-11-19T14:23:41;100253.28;;;6.32;97.77
58757;BME280;44527;47.460;19.016;2023-11-19T14:26:46;100258.78;;;6.26;99.42
58757;BME280;44527;47.460;19.016;2023-11-19T14:29:49;100262.62;;;6.18;100.00
58757;BME280;44527;47.460;19.016;2023-11-19T14:32:53;100255.25;;;5.90;100.00
58757;BME280;44527;47.460;19.016;2023-11-19T14:35:56;100241.91;;;5.79;100.00
58757;BME280;44527;47.460;19.016;2023-11-19T14:38:59;100248.88;;;5.79;100.00
58757;BME280;44527;47.460;19.016;2023-11-19T14:42:02;100252.78;;;5.70;100.00
58757;BME280;44527;47.460;19.016;2023-11-19T14:45:07;100250.03;;;5.73;100.00
58757;BME280;44527;47.460;19.016;2023-11-19T14:48:10;100254.84;;;5.81;100.00
58757;BME280;44527;47.460;19.016;2023-11-19T14:51:13;100243.69;;;5.79;100.00
58757;BME280;44527;47.460;19.016;2023-11-19T14:54:18;100250.78;;;5.75;100.00
58757;BME280;44527;47.460;19.016;2023-11-19T14:57:21;100259.16;;;5.63;100.00
58757;BME280;44527;47.460;19.016;2023-11-19T15:00:27;100263.34;;;5.48;100.00
58757;BME280;44527;47.460;19.016;2023-11-19T15:03:30;100256.94;;;5.55;100.00
58757;BME280;44527;47.460;19.016;2023-11-19T15:06:33;100260.19;;;5.60;100.00
58757;BME280;44527;47.460;19.016;2023-11-19T15:09:36;100261.13;;;5.76;100.00
58757;BME280;44527;47.460;19.016;2023-11-19T15:12:40;100262.06;;;5.57;100.00
58757;BME280;44527;47.460;19.016;2023-11-19T15:15:44;100264.81;;;5.35;100.00
58757;BME280;44527;47.460;19.016;2023-11-19T15:18:47;100265.59;;;5.37;100.00
58757;BME280;44527;47.460;19.016;2023-11-19T15:21:49;100262.62;;;5.44;100.00
58757;BME280;44527;47.460;19.016;2023-11-19T15:24:53;100243.66;;;5.42;100.00
58757;BME280;44527;47.460;19.016;2023-11-19T15:27:57;100252.78;;;5.32;100.00
58757;BME280;44527;47.460;19.016;2023-11-19T15:31:00;100255.03;;;5.40;100.00
58757;BME280;44527;47.460;19.016;2023-11-19T15:34:02;100268.38;;;5.32;100.00
58757;BME280;44527;47.460;19.016;2023-11-19T15:37:05;100274.09;;;5.21;100.00
58757;BME280;44527;47.460;19.016;2023-11-19T15:40:08;100255.03;;;5.21;100.00
58757;BME280;44527;47.460;19.016;2023-11-19T15:43:12;100259.28;;;5.23;100.00
58757;BME280;44527;47.460;19.016;2023-11-19T15:46:14;100250.53;;;5.24;100.00
58757;BME280;44527;47.460;19.016;2023-11-19T15:49:19;100247.84;;;5.26;100.00
58757;BME280;44527;47.460;19.016;2023-11-19T15:52:24;100254.75;;;5.27;100.00
58757;BME280;44527;47.460;19.016;2023-11-19T15:55:27;100235.34;;;5.34;100.00
58757;BME280;44527;47.460;19.016;2023-11-19T15:58:29;100240.69;;;5.31;100.00
58757;BME280;44527;47.460;19.016;2023-11-19T16:01:34;100233.31;;;5.22;100.00
58757;BME280;44527;47.460;19.016;2023-11-19T16:04:37;100218.16;;;4.92;100.00
58757;BME280;44527;47.460;19.016;2023-11-19T16:07:40;100216.28;;;5.15;100.00
58757;BME280;44527;47.460;19.016;2023-11-19T16:10:42;100224.72;;;4.80;100.00